sensor_id;sensor_type;location;lat;lon;timestamp;P1;durP1;ratioP1;P2;durP2;ratioP2
10991;SDS011;5549;47.028;15.514;2022-08-03T00:00:13;2.10;;;2.00;;
10991;SDS011;5549;47.028;15.514;2022-08-03T00:02:41;2.30;;;2.20;;
10991;SDS011;5549;47.028;15.514;2022-08-03T00:05:10;2.13;;;2.03;;
10991;SDS011;5549;47.028;15.514;2022-08-03T00:07:38;2.10;;;2.00;;
10991;SDS011;5549;47.028;15.514;2022-08-03T00:10:07;2.03;;;2.03;;
10991;SDS011;5549;47.028;15.514;2022-08-03T00:12:36;2.40;;;2.20;;
10991;SDS011;5549;47.028;15.514;2022-08-03T00:15:04;2.23;;;2.13;;
10991;SDS011;5549;47.028;15.514;2022-08-03T00:17:33;2.10;;;2.00;;
10991;SDS011;5549;47.028;15.514;2022-08-03T00:20:04;2.10;;;2.00;;
10991;SDS011;5549;47.028;15.514;2022-08-03T00:22:36;2.07;;;1.93;;
10991;SDS011;5549;47.028;15.514;2022-08-03T00:25:06;3.17;;;2.37;;
10991;SDS011;5549;47.028;15.514;2022-08-03T00:27:36;2.27;;;2.17;;
10991;SDS011;5549;47.028;15.514;2022-08-03T00:30:07;2.17;;;2.07;;
10991;SDS011;5549;47.028;15.514;2022-08-03T00:32:40;2.33;;;2.23;;
10991;SDS011;5549;47.028;15.514;2022-08-03T00:35:08;2.70;;;2.50;;
10991;SDS011;5549;47.028;15.514;2022-08-03T00:37:39;2.30;;;2.20;;
10991;SDS011;5549;47.028;15.514;2022-08-03T00:40:09;2.23;;;2.07;;
10991;SDS011;5549;47.028;15.514;2022-08-03T00:42:47;2.67;;;2.47;;
10991;SDS011;5549;47.028;15.514;2022-08-03T00:45:21;2.53;;;2.33;;
10991;SDS011;5549;47.028;15.514;2022-08-03T00:47:51;2.70;;;2.50;;
10991;SDS011;5549;47.028;15.514;2022-08-03T00:50:21;2.50;;;2.40;;
10991;SDS011;5549;47.028;15.514;2022-08-03T00:52:55;2.87;;;2.50;;
10991;SDS011;5549;47.028;15.514;2022-08-03T00:55:25;2.27;;;2.17;;
10991;SDS011;5549;47.028;15.514;2022-08-03T00:57:53;2.70;;;2.13;;
10991;SDS011;5549;47.028;15.514;2022-08-03T01:00:21;2.07;;;1.97;;
10991;SDS011;5549;47.028;15.514;2022-08-03T01:02:52;2.30;;;2.20;;
10991;SDS011;5549;47.028;15.514;2022-08-03T01:05:22;2.20;;;2.10;;
10991;SDS011;5549;47.028;15.514;2022-08-03T01:07:59;2.17;;;2.07;;
10991;SDS011;5549;47.028;15.514;2022-08-03T01:10:36;2.33;;;2.23;;
10991;SDS011;5549;47.028;15.514;2022-08-03T01:13:20;2.30;;;2.20;;
10991;SDS011;5549;47.028;15.514;2022-08-03T01:15:59;2.40;;;2.30;;
10991;SDS011;5549;47.028;15.514;2022-08-03T01:18:35;1.93;;;1.93;;
10991;SDS011;5549;47.028;15.514;2022-08-03T01:21:11;2.20;;;2.10;;
10991;SDS011;5549;47.028;15.514;2022-08-03T01:23:50;2.23;;;2.13;;
10991;SDS011;5549;47.028;15.514;2022-08-03T01:29:53;2.00;;;2.00;;
10991;SDS011;5549;47.028;15.514;2022-08-03T01:32:33;2.77;;;2.00;;
10991;SDS011;5549;47.028;15.514;2022-08-03T01:35:08;2.40;;;2.30;;
10991;SDS011;5549;47.028;15.514;2022-08-03T01:37:41;2.73;;;2.53;;
10991;SDS011;5549;47.028;15.514;2022-08-03T01:40:17;2.10;;;2.00;;
10991;SDS011;5549;47.028;15.514;2022-08-03T01:42:51;2.30;;;2.10;;
10991;SDS011;5549;47.028;15.514;2022-08-03T01:45:25;2.40;;;2.30;;
10991;SDS011;5549;47.028;15.514;2022-08-03T01:47:57;2.30;;;2.20;;
10991;SDS011;5549;47.028;15.514;2022-08-03T01:50:26;2.27;;;2.17;;
10991;SDS011;5549;47.028;15.514;2022-08-03T01:53:01;2.40;;;2.30;;
10991;SDS011;5549;47.028;15.514;2022-08-03T01:55:35;2.80;;;2.60;;
10991;SDS011;5549;47.028;15.514;2022-08-03T01:58:05;2.20;;;2.10;;
10991;SDS011;5549;47.028;15.514;2022-08-03T02:00:37;2.40;;;2.30;;
10991;SDS011;5549;47.028;15.514;2022-08-03T02:03:11;2.57;;;2.47;;
10991;SDS011;5549;47.028;15.514;2022-08-03T02:05:40;2.43;;;2.33;;
10991;SDS011;5549;47.028;15.514;2022-08-03T02:08:12;2.40;;;2.30;;
10991;SDS011;5549;47.028;15.514;2022-08-03T02:10:45;2.40;;;2.20;;
10991;SDS011;5549;47.028;15.514;2022-08-03T02:13:18;2.43;;;2.33;;
10991;SDS011;5549;47.028;15.514;2022-08-03T02:15:50;2.57;;;2.37;;
10991;SDS011;5549;47.028;15.514;2022-08-03T02:18:19;2.60;;;2.40;;
10991;SDS011;5549;47.028;15.514;2022-08-03T02:20:49;2.90;;;2.70;;
10991;SDS011;5549;47.028;15.514;2022-08-03T02:23:17;2.43;;;2.33;;
10991;SDS011;5549;47.028;15.514;2022-08-03T02:25:46;2.53;;;2.43;;
10991;SDS011;5549;47.028;15.514;2022-08-03T02:28:28;2.23;;;2.13;;
10991;SDS011;5549;47.028;15.514;2022-08-03T02:31:03;2.83;;;2.70;;
10991;SDS011;5549;47.028;15.514;2022-08-03T02:33:38;2.53;;;2.30;;
10991;SDS011;5549;47.028;15.514;2022-08-03T02:36:11;2.97;;;2.77;;
10991;SDS011;5549;47.028;15.514;2022-08-03T02:38:42;3.13;;;2.43;;
10991;SDS011;5549;47.028;15.514;2022-08-03T02:41:19;2.87;;;2.67;;
10991;SDS011;5549;47.028;15.514;2022-08-03T02:43:52;3.13;;;2.83;;
10991;SDS011;5549;47.028;15.514;2022-08-03T02:46:24;2.40;;;2.30;;
10991;SDS011;5549;47.028;15.514;2022-08-03T02:48:57;2.50;;;2.40;;
10991;SDS011;5549;47.028;15.514;2022-08-03T02:51:31;2.63;;;2.53;;
10991;SDS011;5549;47.028;15.514;2022-08-03T02:54:03;2.70;;;2.53;;
10991;SDS011;5549;47.028;15.514;2022-08-03T02:56:32;2.50;;;2.40;;
10991;SDS011;5549;47.028;15.514;2022-08-03T02:59:03;3.00;;;2.70;;
10991;SDS011;5549;47.028;15.514;2022-08-03T03:01:36;2.60;;;2.40;;
10991;SDS011;5549;47.028;15.514;2022-08-03T03:04:07;2.97;;;2.30;;
10991;SDS011;5549;47.028;15.514;2022-08-03T03:06:41;2.70;;;2.60;;
10991;SDS011;5549;47.028;15.514;2022-08-03T03:09:11;2.70;;;2.60;;
10991;SDS011;5549;47.028;15.514;2022-08-03T03:11:39;2.70;;;2.50;;
10991;SDS011;5549;47.028;15.514;2022-08-03T03:14:10;2.73;;;2.53;;
10991;SDS011;5549;47.028;15.514;2022-08-03T03:16:40;2.63;;;2.53;;
10991;SDS011;5549;47.028;15.514;2022-08-03T03:19:10;2.60;;;2.43;;
10991;SDS011;5549;47.028;15.514;2022-08-03T03:21:39;2.40;;;2.30;;
10991;SDS011;5549;47.028;15.514;2022-08-03T03:24:10;2.60;;;2.50;;
10991;SDS011;5549;47.028;15.514;2022-08-03T03:26:40;2.63;;;2.53;;
10991;SDS011;5549;47.028;15.514;2022-08-03T03:29:08;2.80;;;2.50;;
10991;SDS011;5549;47.028;15.514;2022-08-03T03:31:38;3.00;;;2.80;;
10991;SDS011;5549;47.028;15.514;2022-08-03T03:34:07;2.80;;;2.60;;
10991;SDS011;5549;47.028;15.514;2022-08-03T03:36:37;2.50;;;2.40;;
10991;SDS011;5549;47.028;15.514;2022-08-03T03:39:05;2.43;;;2.33;;
10991;SDS011;5549;47.028;15.514;2022-08-03T03:41:35;2.30;;;2.20;;
10991;SDS011;5549;47.028;15.514;2022-08-03T03:44:03;2.20;;;2.03;;
10991;SDS011;5549;47.028;15.514;2022-08-03T03:46:31;2.37;;;2.17;;
10991;SDS011;5549;47.028;15.514;2022-08-03T03:49:00;2.63;;;2.50;;
10991;SDS011;5549;47.028;15.514;2022-08-03T03:51:27;2.53;;;2.43;;
10991;SDS011;5549;47.028;15.514;2022-08-03T03:53:55;2.63;;;2.43;;
10991;SDS011;5549;47.028;15.514;2022-08-03T03:56:23;2.63;;;2.43;;
10991;SDS011;5549;47.028;15.514;2022-08-03T03:58:52;3.13;;;2.23;;
10991;SDS011;5549;47.028;15.514;2022-08-03T04:01:23;2.20;;;2.10;;
10991;SDS011;5549;47.028;15.514;2022-08-03T04:03:53;2.60;;;2.40;;
10991;SDS011;5549;47.028;15.514;2022-08-03T04:06:22;2.23;;;2.13;;
10991;SDS011;5549;47.028;15.514;2022-08-03T04:09:07;2.17;;;2.07;;
10991;SDS011;5549;47.028;15.514;2022-08-03T04:11:53;2.60;;;2.50;;
10991;SDS011;5549;47.028;15.514;2022-08-03T04:14:24;2.60;;;2.50;;
10991;SDS011;5549;47.028;15.514;2022-08-03T04:16:58;2.57;;;2.37;;
10991;SDS011;5549;47.028;15.514;2022-08-03T04:19:31;2.73;;;2.63;;
10991;SDS011;5549;47.028;15.514;2022-08-03T04:22:08;2.40;;;2.30;;
10991;SDS011;5549;47.028;15.514;2022-08-03T04:24:40;2.50;;;2.40;;
10991;SDS011;5549;47.028;15.514;2022-08-03T04:27:15;2.30;;;2.20;;
10991;SDS011;5549;47.028;15.514;2022-08-03T04:29:48;3.43;;;2.40;;
10991;SDS011;5549;47.028;15.514;2022-08-03T04:32:19;2.20;;;2.00;;
10991;SDS011;5549;47.028;15.514;2022-08-03T04:34:56;4.40;;;2.30;;
10991;SDS011;5549;47.028;15.514;2022-08-03T04:37:30;2.83;;;2.63;;
10991;SDS011;5549;47.028;15.514;2022-08-03T04:40:05;2.30;;;2.20;;
10991;SDS011;5549;47.028;15.514;2022-08-03T04:42:37;2.40;;;2.30;;
10991;SDS011;5549;47.028;15.514;2022-08-03T04:45:06;2.30;;;2.10;;
10991;SDS011;5549;47.028;15.514;2022-08-03T04:47:38;2.40;;;2.20;;
10991;SDS011;5549;47.028;15.514;2022-08-03T04:50:07;2.33;;;2.20;;
10991;SDS011;5549;47.028;15.514;2022-08-03T04:52:38;2.50;;;2.40;;
10991;SDS011;5549;47.028;15.514;2022-08-03T04:55:06;2.40;;;2.30;;
10991;SDS011;5549;47.028;15.514;2022-08-03T04:57:35;2.27;;;2.17;;
10991;SDS011;5549;47.028;15.514;2022-08-03T05:00:03;2.43;;;2.33;;
10991;SDS011;5549;47.028;15.514;2022-08-03T05:02:31;2.30;;;2.20;;
10991;SDS011;5549;47.028;15.514;2022-08-03T05:05:01;2.63;;;2.37;;
10991;SDS011;5549;47.028;15.514;2022-08-03T05:07:32;2.57;;;2.47;;
10991;SDS011;5549;47.028;15.514;2022-08-03T05:10:08;2.70;;;2.53;;
10991;SDS011;5549;47.028;15.514;2022-08-03T05:12:38;3.13;;;2.93;;
10991;SDS011;5549;47.028;15.514;2022-08-03T05:15:06;2.30;;;2.20;;
10991;SDS011;5549;47.028;15.514;2022-08-03T05:17:35;3.07;;;2.50;;
10991;SDS011;5549;47.028;15.514;2022-08-03T05:20:04;4.77;;;2.80;;
10991;SDS011;5549;47.028;15.514;2022-08-03T05:22:34;2.77;;;2.67;;
10991;SDS011;5549;47.028;15.514;2022-08-03T05:25:02;4.27;;;2.57;;
10991;SDS011;5549;47.028;15.514;2022-08-03T05:27:32;3.53;;;3.23;;
10991;SDS011;5549;47.028;15.514;2022-08-03T05:30:00;3.30;;;3.00;;
10991;SDS011;5549;47.028;15.514;2022-08-03T05:32:29;3.10;;;2.90;;
10991;SDS011;5549;47.028;15.514;2022-08-03T05:34:57;3.10;;;2.90;;
10991;SDS011;5549;47.028;15.514;2022-08-03T05:37:25;2.97;;;2.77;;
10991;SDS011;5549;47.028;15.514;2022-08-03T05:39:52;2.93;;;2.77;;
10991;SDS011;5549;47.028;15.514;2022-08-03T05:42:20;3.43;;;3.03;;
10991;SDS011;5549;47.028;15.514;2022-08-03T05:44:49;3.50;;;3.13;;
10991;SDS011;5549;47.028;15.514;2022-08-03T05:47:17;2.90;;;2.70;;
10991;SDS011;5549;47.028;15.514;2022-08-03T05:49:46;2.43;;;2.33;;
10991;SDS011;5549;47.028;15.514;2022-08-03T05:52:14;2.67;;;2.57;;
10991;SDS011;5549;47.028;15.514;2022-08-03T05:54:42;2.90;;;2.63;;
10991;SDS011;5549;47.028;15.514;2022-08-03T05:57:11;2.57;;;2.33;;
10991;SDS011;5549;47.028;15.514;2022-08-03T05:59:41;2.30;;;2.20;;
10991;SDS011;5549;47.028;15.514;2022-08-03T06:02:10;2.57;;;2.40;;
10991;SDS011;5549;47.028;15.514;2022-08-03T06:04:38;2.97;;;2.77;;
10991;SDS011;5549;47.028;15.514;2022-08-03T06:07:08;2.90;;;2.70;;
10991;SDS011;5549;47.028;15.514;2022-08-03T06:09:36;3.00;;;2.80;;
10991;SDS011;5549;47.028;15.514;2022-08-03T06:12:05;3.00;;;2.80;;
10991;SDS011;5549;47.028;15.514;2022-08-03T06:14:33;3.23;;;3.03;;
10991;SDS011;5549;47.028;15.514;2022-08-03T06:17:01;2.80;;;2.33;;
10991;SDS011;5549;47.028;15.514;2022-08-03T06:19:31;3.17;;;2.80;;
10991;SDS011;5549;47.028;15.514;2022-08-03T06:22:01;3.90;;;2.50;;
10991;SDS011;5549;47.028;15.514;2022-08-03T06:24:31;2.17;;;1.97;;
10991;SDS011;5549;47.028;15.514;2022-08-03T06:26:59;2.47;;;2.23;;
10991;SDS011;5549;47.028;15.514;2022-08-03T06:29:26;3.03;;;2.83;;
10991;SDS011;5549;47.028;15.514;2022-08-03T06:31:56;2.63;;;2.47;;
10991;SDS011;5549;47.028;15.514;2022-08-03T06:34:26;3.00;;;2.60;;
10991;SDS011;5549;47.028;15.514;2022-08-03T06:36:55;2.87;;;2.67;;
10991;SDS011;5549;47.028;15.514;2022-08-03T06:39:24;2.40;;;2.20;;
10991;SDS011;5549;47.028;15.514;2022-08-03T06:41:55;2.10;;;2.00;;
10991;SDS011;5549;47.028;15.514;2022-08-03T06:44:23;2.13;;;2.03;;
10991;SDS011;5549;47.028;15.514;2022-08-03T06:46:52;2.37;;;2.27;;
10991;SDS011;5549;47.028;15.514;2022-08-03T06:49:22;2.20;;;2.10;;
10991;SDS011;5549;47.028;15.514;2022-08-03T06:51:54;1.90;;;1.80;;
10991;SDS011;5549;47.028;15.514;2022-08-03T06:54:22;2.10;;;2.00;;
10991;SDS011;5549;47.028;15.514;2022-08-03T06:56:52;1.40;;;1.40;;
10991;SDS011;5549;47.028;15.514;2022-08-03T06:59:22;1.67;;;1.67;;
10991;SDS011;5549;47.028;15.514;2022-08-03T07:01:49;1.53;;;1.53;;
10991;SDS011;5549;47.028;15.514;2022-08-03T07:04:17;1.70;;;1.60;;
10991;SDS011;5549;47.028;15.514;2022-08-03T07:06:46;1.70;;;1.60;;
10991;SDS011;5549;47.028;15.514;2022-08-03T07:09:18;1.90;;;1.80;;
10991;SDS011;5549;47.028;15.514;2022-08-03T07:11:47;1.50;;;1.40;;
10991;SDS011;5549;47.028;15.514;2022-08-03T07:14:17;1.90;;;1.80;;
10991;SDS011;5549;47.028;15.514;2022-08-03T07:16:45;1.43;;;1.43;;
10991;SDS011;5549;47.028;15.514;2022-08-03T07:19:13;1.50;;;1.50;;
10991;SDS011;5549;47.028;15.514;2022-08-03T07:21:41;2.00;;;1.40;;
10991;SDS011;5549;47.028;15.514;2022-08-03T07:24:13;1.40;;;1.37;;
10991;SDS011;5549;47.028;15.514;2022-08-03T07:26:45;1.30;;;1.30;;
10991;SDS011;5549;47.028;15.514;2022-08-03T07:29:13;1.50;;;1.40;;
10991;SDS011;5549;47.028;15.514;2022-08-03T07:31:42;1.57;;;1.53;;
10991;SDS011;5549;47.028;15.514;2022-08-03T07:34:13;1.30;;;1.30;;
10991;SDS011;5549;47.028;15.514;2022-08-03T07:36:41;1.60;;;1.50;;
10991;SDS011;5549;47.028;15.514;2022-08-03T07:39:11;1.33;;;1.33;;
10991;SDS011;5549;47.028;15.514;2022-08-03T07:41:38;1.50;;;1.50;;
10991;SDS011;5549;47.028;15.514;2022-08-03T07:44:07;1.20;;;1.20;;
10991;SDS011;5549;47.028;15.514;2022-08-03T07:46:35;1.40;;;1.40;;
10991;SDS011;5549;47.028;15.514;2022-08-03T07:49:03;1.50;;;1.50;;
10991;SDS011;5549;47.028;15.514;2022-08-03T07:51:31;1.73;;;1.63;;
10991;SDS011;5549;47.028;15.514;2022-08-03T07:54:01;1.70;;;1.70;;
10991;SDS011;5549;47.028;15.514;2022-08-03T07:56:31;1.30;;;1.30;;
10991;SDS011;5549;47.028;15.514;2022-08-03T07:59:01;1.57;;;1.57;;
10991;SDS011;5549;47.028;15.514;2022-08-03T08:01:32;1.60;;;1.60;;
10991;SDS011;5549;47.028;15.514;2022-08-03T08:04:02;1.80;;;1.50;;
10991;SDS011;5549;47.028;15.514;2022-08-03T08:06:30;1.77;;;1.60;;
10991;SDS011;5549;47.028;15.514;2022-08-03T08:08:59;1.93;;;1.83;;
10991;SDS011;5549;47.028;15.514;2022-08-03T08:11:27;1.60;;;1.60;;
10991;SDS011;5549;47.028;15.514;2022-08-03T08:13:57;1.40;;;1.40;;
10991;SDS011;5549;47.028;15.514;2022-08-03T08:16:27;1.57;;;1.47;;
10991;SDS011;5549;47.028;15.514;2022-08-03T08:18:56;1.43;;;1.43;;
10991;SDS011;5549;47.028;15.514;2022-08-03T08:21:26;1.60;;;1.60;;
10991;SDS011;5549;47.028;15.514;2022-08-03T08:23:56;1.87;;;1.77;;
10991;SDS011;5549;47.028;15.514;2022-08-03T08:26:24;1.47;;;1.47;;
10991;SDS011;5549;47.028;15.514;2022-08-03T08:28:52;1.70;;;1.70;;
10991;SDS011;5549;47.028;15.514;2022-08-03T08:31:21;1.60;;;1.50;;
10991;SDS011;5549;47.028;15.514;2022-08-03T08:33:49;1.40;;;1.40;;
10991;SDS011;5549;47.028;15.514;2022-08-03T08:36:20;1.30;;;1.30;;
10991;SDS011;5549;47.028;15.514;2022-08-03T08:38:48;1.70;;;1.60;;
10991;SDS011;5549;47.028;15.514;2022-08-03T08:41:16;1.73;;;1.70;;
10991;SDS011;5549;47.028;15.514;2022-08-03T08:43:44;1.40;;;1.40;;
10991;SDS011;5549;47.028;15.514;2022-08-03T08:46:14;1.63;;;1.63;;
10991;SDS011;5549;47.028;15.514;2022-08-03T08:48:46;1.30;;;1.30;;
10991;SDS011;5549;47.028;15.514;2022-08-03T08:51:18;1.80;;;1.70;;
10991;SDS011;5549;47.028;15.514;2022-08-03T08:53:55;1.40;;;1.40;;
10991;SDS011;5549;47.028;15.514;2022-08-03T08:56:27;1.50;;;1.50;;
10991;SDS011;5549;47.028;15.514;2022-08-03T08:58:57;1.37;;;1.37;;
10991;SDS011;5549;47.028;15.514;2022-08-03T09:01:29;1.73;;;1.73;;
10991;SDS011;5549;47.028;15.514;2022-08-03T09:03:59;1.53;;;1.50;;
10991;SDS011;5549;47.028;15.514;2022-08-03T09:06:31;1.57;;;1.57;;
10991;SDS011;5549;47.028;15.514;2022-08-03T09:08:58;1.50;;;1.40;;
10991;SDS011;5549;47.028;15.514;2022-08-03T09:11:29;1.57;;;1.47;;
10991;SDS011;5549;47.028;15.514;2022-08-03T09:13:57;1.70;;;1.67;;
10991;SDS011;5549;47.028;15.514;2022-08-03T09:16:27;2.20;;;1.60;;
10991;SDS011;5549;47.028;15.514;2022-08-03T09:18:54;1.63;;;1.63;;
10991;SDS011;5549;47.028;15.514;2022-08-03T09:21:39;1.60;;;1.60;;
10991;SDS011;5549;47.028;15.514;2022-08-03T09:24:07;1.43;;;1.43;;
10991;SDS011;5549;47.028;15.514;2022-08-03T09:26:35;1.60;;;1.60;;
10991;SDS011;5549;47.028;15.514;2022-08-03T09:29:06;1.60;;;1.50;;
10991;SDS011;5549;47.028;15.514;2022-08-03T09:31:36;2.33;;;1.30;;
10991;SDS011;5549;47.028;15.514;2022-08-03T09:34:06;1.60;;;1.60;;
10991;SDS011;5549;47.028;15.514;2022-08-03T09:36:36;1.23;;;1.23;;
10991;SDS011;5549;47.028;15.514;2022-08-03T09:39:11;1.07;;;1.07;;
10991;SDS011;5549;47.028;15.514;2022-08-03T09:41:46;1.60;;;1.50;;
10991;SDS011;5549;47.028;15.514;2022-08-03T09:44:32;1.43;;;1.43;;
10991;SDS011;5549;47.028;15.514;2022-08-03T09:47:02;1.40;;;1.40;;
10991;SDS011;5549;47.028;15.514;2022-08-03T09:49:33;2.10;;;1.50;;
10991;SDS011;5549;47.028;15.514;2022-08-03T09:52:12;1.47;;;1.47;;
10991;SDS011;5549;47.028;15.514;2022-08-03T09:54:42;1.30;;;1.30;;
10991;SDS011;5549;47.028;15.514;2022-08-03T09:57:20;1.47;;;1.47;;
10991;SDS011;5549;47.028;15.514;2022-08-03T09:59:49;1.27;;;1.27;;
10991;SDS011;5549;47.028;15.514;2022-08-03T10:02:20;1.10;;;1.10;;
10991;SDS011;5549;47.028;15.514;2022-08-03T10:04:51;1.37;;;1.37;;
10991;SDS011;5549;47.028;15.514;2022-08-03T10:07:21;1.37;;;1.37;;
10991;SDS011;5549;47.028;15.514;2022-08-03T10:09:53;4.53;;;1.87;;
10991;SDS011;5549;47.028;15.514;2022-08-03T10:12:25;1.30;;;1.30;;
10991;SDS011;5549;47.028;15.514;2022-08-03T10:14:54;1.50;;;1.50;;
10991;SDS011;5549;47.028;15.514;2022-08-03T10:17:29;1.50;;;1.40;;
10991;SDS011;5549;47.028;15.514;2022-08-03T10:19:58;1.30;;;1.30;;
10991;SDS011;5549;47.028;15.514;2022-08-03T10:22:31;1.30;;;1.30;;
10991;SDS011;5549;47.028;15.514;2022-08-03T10:25:03;1.33;;;1.30;;
10991;SDS011;5549;47.028;15.514;2022-08-03T10:27:34;1.30;;;1.30;;
10991;SDS011;5549;47.028;15.514;2022-08-03T10:30:07;1.30;;;1.30;;
10991;SDS011;5549;47.028;15.514;2022-08-03T10:32:39;1.23;;;1.23;;
10991;SDS011;5549;47.028;15.514;2022-08-03T10:35:11;1.30;;;1.30;;
10991;SDS011;5549;47.028;15.514;2022-08-03T10:37:43;1.27;;;1.27;;
10991;SDS011;5549;47.028;15.514;2022-08-03T10:40:17;1.23;;;1.23;;
10991;SDS011;5549;47.028;15.514;2022-08-03T10:42:50;1.10;;;1.10;;
10991;SDS011;5549;47.028;15.514;2022-08-03T10:45:22;1.00;;;1.00;;
10991;SDS011;5549;47.028;15.514;2022-08-03T10:47:55;1.27;;;1.27;;
10991;SDS011;5549;47.028;15.514;2022-08-03T10:50:25;1.30;;;1.20;;
10991;SDS011;5549;47.028;15.514;2022-08-03T10:52:58;1.20;;;1.20;;
10991;SDS011;5549;47.028;15.514;2022-08-03T10:55:31;1.40;;;1.40;;
10991;SDS011;5549;47.028;15.514;2022-08-03T11:04:39;1.23;;;1.23;;
10991;SDS011;5549;47.028;15.514;2022-08-03T11:07:20;1.50;;;1.50;;
10991;SDS011;5549;47.028;15.514;2022-08-03T11:09:52;1.20;;;1.20;;
10991;SDS011;5549;47.028;15.514;2022-08-03T11:12:25;1.10;;;1.10;;
10991;SDS011;5549;47.028;15.514;2022-08-03T11:14:58;1.20;;;1.10;;
10991;SDS011;5549;47.028;15.514;2022-08-03T11:17:27;1.30;;;1.30;;
10991;SDS011;5549;47.028;15.514;2022-08-03T11:19:57;1.70;;;1.60;;
10991;SDS011;5549;47.028;15.514;2022-08-03T11:22:47;1.53;;;1.43;;
10991;SDS011;5549;47.028;15.514;2022-08-03T11:25:22;1.20;;;1.20;;
10991;SDS011;5549;47.028;15.514;2022-08-03T11:27:56;0.97;;;0.97;;
10991;SDS011;5549;47.028;15.514;2022-08-03T11:30:56;1.10;;;1.10;;
10991;SDS011;5549;47.028;15.514;2022-08-03T11:34:02;1.23;;;1.23;;
10991;SDS011;5549;47.028;15.514;2022-08-03T11:36:32;1.10;;;1.10;;
10991;SDS011;5549;47.028;15.514;2022-08-03T11:39:48;1.00;;;1.00;;
10991;SDS011;5549;47.028;15.514;2022-08-03T11:45:17;1.17;;;1.17;;
10991;SDS011;5549;47.028;15.514;2022-08-03T11:47:46;1.20;;;1.20;;
10991;SDS011;5549;47.028;15.514;2022-08-03T11:50:21;1.17;;;1.17;;
10991;SDS011;5549;47.028;15.514;2022-08-03T11:52:51;1.03;;;1.03;;
10991;SDS011;5549;47.028;15.514;2022-08-03T11:55:20;1.20;;;1.20;;
10991;SDS011;5549;47.028;15.514;2022-08-03T11:57:49;1.40;;;1.40;;
10991;SDS011;5549;47.028;15.514;2022-08-03T12:00:24;1.23;;;1.23;;
10991;SDS011;5549;47.028;15.514;2022-08-03T12:02:55;1.00;;;1.00;;
10991;SDS011;5549;47.028;15.514;2022-08-03T12:05:39;1.20;;;1.20;;
10991;SDS011;5549;47.028;15.514;2022-08-03T12:08:11;1.20;;;1.20;;
10991;SDS011;5549;47.028;15.514;2022-08-03T12:10:46;1.30;;;1.30;;
10991;SDS011;5549;47.028;15.514;2022-08-03T12:13:18;0.90;;;0.90;;
10991;SDS011;5549;47.028;15.514;2022-08-03T12:15:51;1.20;;;1.20;;
10991;SDS011;5549;47.028;15.514;2022-08-03T12:18:20;1.10;;;1.10;;
10991;SDS011;5549;47.028;15.514;2022-08-03T12:20:51;1.30;;;1.30;;
10991;SDS011;5549;47.028;15.514;2022-08-03T12:23:28;1.30;;;1.30;;
10991;SDS011;5549;47.028;15.514;2022-08-03T12:26:02;1.00;;;1.00;;
10991;SDS011;5549;47.028;15.514;2022-08-03T12:28:33;1.10;;;1.10;;
10991;SDS011;5549;47.028;15.514;2022-08-03T12:31:04;1.20;;;1.20;;
10991;SDS011;5549;47.028;15.514;2022-08-03T12:36:29;1.20;;;1.20;;
10991;SDS011;5549;47.028;15.514;2022-08-03T12:38:59;1.13;;;1.13;;
10991;SDS011;5549;47.028;15.514;2022-08-03T12:41:32;1.17;;;1.17;;
10991;SDS011;5549;47.028;15.514;2022-08-03T12:44:03;1.27;;;1.27;;
10991;SDS011;5549;47.028;15.514;2022-08-03T12:46:36;1.07;;;1.07;;
10991;SDS011;5549;47.028;15.514;2022-08-03T12:49:08;1.50;;;1.30;;
10991;SDS011;5549;47.028;15.514;2022-08-03T12:51:55;1.30;;;1.30;;
10991;SDS011;5549;47.028;15.514;2022-08-03T12:54:28;1.20;;;1.20;;
10991;SDS011;5549;47.028;15.514;2022-08-03T12:56:57;1.00;;;1.00;;
10991;SDS011;5549;47.028;15.514;2022-08-03T12:59:28;1.20;;;1.20;;
10991;SDS011;5549;47.028;15.514;2022-08-03T13:02:00;1.00;;;1.00;;
10991;SDS011;5549;47.028;15.514;2022-08-03T13:04:32;1.20;;;1.20;;
10991;SDS011;5549;47.028;15.514;2022-08-03T13:07:04;1.20;;;1.20;;
10991;SDS011;5549;47.028;15.514;2022-08-03T13:09:40;1.10;;;1.10;;
10991;SDS011;5549;47.028;15.514;2022-08-03T13:12:10;1.10;;;1.10;;
10991;SDS011;5549;47.028;15.514;2022-08-03T13:14:43;0.90;;;0.90;;
10991;SDS011;5549;47.028;15.514;2022-08-03T13:17:15;1.00;;;1.00;;
10991;SDS011;5549;47.028;15.514;2022-08-03T13:19:43;1.10;;;1.10;;
10991;SDS011;5549;47.028;15.514;2022-08-03T13:22:13;1.20;;;1.20;;
10991;SDS011;5549;47.028;15.514;2022-08-03T13:24:43;1.00;;;1.00;;
10991;SDS011;5549;47.028;15.514;2022-08-03T13:27:13;0.90;;;0.90;;
10991;SDS011;5549;47.028;15.514;2022-08-03T13:29:44;1.00;;;1.00;;
10991;SDS011;5549;47.028;15.514;2022-08-03T13:32:12;1.20;;;1.20;;
10991;SDS011;5549;47.028;15.514;2022-08-03T13:34:42;1.07;;;1.07;;
10991;SDS011;5549;47.028;15.514;2022-08-03T13:37:12;1.00;;;1.00;;
10991;SDS011;5549;47.028;15.514;2022-08-03T13:39:42;1.00;;;1.00;;
10991;SDS011;5549;47.028;15.514;2022-08-03T13:42:10;1.00;;;1.00;;
10991;SDS011;5549;47.028;15.514;2022-08-03T13:44:40;1.07;;;1.07;;
10991;SDS011;5549;47.028;15.514;2022-08-03T13:47:09;1.10;;;1.10;;
10991;SDS011;5549;47.028;15.514;2022-08-03T13:49:37;1.27;;;1.17;;
10991;SDS011;5549;47.028;15.514;2022-08-03T13:52:04;1.10;;;1.10;;
10991;SDS011;5549;47.028;15.514;2022-08-03T13:54:34;1.00;;;1.00;;
10991;SDS011;5549;47.028;15.514;2022-08-03T13:57:02;1.10;;;1.10;;
10991;SDS011;5549;47.028;15.514;2022-08-03T13:59:30;0.90;;;0.90;;
10991;SDS011;5549;47.028;15.514;2022-08-03T14:01:57;1.10;;;1.10;;
10991;SDS011;5549;47.028;15.514;2022-08-03T14:04:26;0.97;;;0.97;;
10991;SDS011;5549;47.028;15.514;2022-08-03T14:06:54;3.00;;;1.20;;
10991;SDS011;5549;47.028;15.514;2022-08-03T14:09:24;1.20;;;1.20;;
10991;SDS011;5549;47.028;15.514;2022-08-03T14:11:53;1.10;;;1.10;;
10991;SDS011;5549;47.028;15.514;2022-08-03T14:14:20;1.33;;;1.33;;
10991;SDS011;5549;47.028;15.514;2022-08-03T14:16:50;1.30;;;1.30;;
10991;SDS011;5549;47.028;15.514;2022-08-03T14:19:20;1.20;;;1.20;;
10991;SDS011;5549;47.028;15.514;2022-08-03T14:21:49;1.40;;;1.40;;
10991;SDS011;5549;47.028;15.514;2022-08-03T14:24:17;1.20;;;1.20;;
10991;SDS011;5549;47.028;15.514;2022-08-03T14:26:47;1.10;;;1.10;;
10991;SDS011;5549;47.028;15.514;2022-08-03T14:29:22;1.00;;;1.00;;
10991;SDS011;5549;47.028;15.514;2022-08-03T14:31:50;1.27;;;1.27;;
10991;SDS011;5549;47.028;15.514;2022-08-03T14:34:17;1.10;;;1.10;;
10991;SDS011;5549;47.028;15.514;2022-08-03T14:36:45;1.10;;;1.10;;
10991;SDS011;5549;47.028;15.514;2022-08-03T14:39:14;1.00;;;1.00;;
10991;SDS011;5549;47.028;15.514;2022-08-03T14:41:44;1.00;;;1.00;;
10991;SDS011;5549;47.028;15.514;2022-08-03T14:44:13;1.00;;;1.00;;
10991;SDS011;5549;47.028;15.514;2022-08-03T14:46:41;1.33;;;1.10;;
10991;SDS011;5549;47.028;15.514;2022-08-03T14:49:10;1.20;;;1.20;;
10991;SDS011;5549;47.028;15.514;2022-08-03T14:51:40;1.10;;;1.10;;
10991;SDS011;5549;47.028;15.514;2022-08-03T14:54:10;1.10;;;1.10;;
10991;SDS011;5549;47.028;15.514;2022-08-03T14:56:42;1.00;;;1.00;;
10991;SDS011;5549;47.028;15.514;2022-08-03T14:59:09;1.00;;;1.00;;
10991;SDS011;5549;47.028;15.514;2022-08-03T15:01:40;1.10;;;1.10;;
10991;SDS011;5549;47.028;15.514;2022-08-03T15:04:07;1.00;;;1.00;;
10991;SDS011;5549;47.028;15.514;2022-08-03T15:06:34;1.70;;;1.00;;
10991;SDS011;5549;47.028;15.514;2022-08-03T15:09:04;1.07;;;1.07;;
10991;SDS011;5549;47.028;15.514;2022-08-03T15:11:32;1.20;;;1.20;;
10991;SDS011;5549;47.028;15.514;2022-08-03T15:14:04;1.03;;;1.03;;
10991;SDS011;5549;47.028;15.514;2022-08-03T15:16:34;0.90;;;0.90;;
10991;SDS011;5549;47.028;15.514;2022-08-03T15:19:05;1.00;;;1.00;;
10991;SDS011;5549;47.028;15.514;2022-08-03T15:21:33;1.30;;;1.30;;
10991;SDS011;5549;47.028;15.514;2022-08-03T15:24:03;1.17;;;1.17;;
10991;SDS011;5549;47.028;15.514;2022-08-03T15:26:31;1.20;;;1.20;;